createdAt,value
2022-08-21T00:00:55.172Z,25.30
2022-08-21T00:01:55.382Z,25.30
2022-08-21T00:02:55.538Z,25.27
2022-08-21T00:03:55.686Z,25.28
2022-08-21T00:04:57.780Z,25.27
2022-08-21T00:05:56.036Z,25.33
2022-08-21T00:06:56.236Z,25.30
2022-08-21T00:07:56.367Z,25.30
2022-08-21T00:08:56.527Z,25.31
2022-08-21T00:09:56.688Z,25.28
2022-08-21T00:10:56.851Z,25.30
2022-08-21T00:11:57.035Z,25.28
2022-08-21T00:12:57.368Z,25.31
2022-08-21T00:13:57.369Z,25.28
2022-08-21T00:14:58.219Z,25.28
2022-08-21T00:15:57.710Z,25.30
2022-08-21T00:16:57.922Z,25.28
2022-08-21T00:17:58.080Z,25.28
2022-08-21T00:18:58.243Z,25.31
2022-08-21T00:19:58.417Z,25.30
2022-08-21T00:20:58.578Z,25.31
2022-08-21T00:21:58.753Z,25.30
2022-08-21T00:22:59.083Z,25.30
2022-08-21T00:23:59.073Z,25.30
2022-08-21T00:24:59.254Z,25.31
2022-08-21T00:25:59.422Z,25.27
2022-08-21T00:26:59.601Z,25.28
2022-08-21T00:27:59.757Z,25.28
2022-08-21T00:28:59.920Z,25.28
2022-08-21T00:30:00.088Z,25.28
2022-08-21T00:31:00.246Z,25.27
2022-08-21T00:32:00.435Z,25.25
2022-08-21T00:33:00.597Z,25.27
2022-08-21T00:34:01.282Z,25.25
2022-08-21T00:35:00.919Z,25.27
2022-08-21T00:36:01.077Z,25.28
2022-08-21T00:37:01.248Z,25.27
2022-08-21T00:38:01.408Z,25.28
2022-08-21T00:39:01.604Z,25.27
2022-08-21T00:40:01.784Z,25.27
2022-08-21T00:41:21.142Z,25.27
2022-08-21T00:42:03.120Z,25.25
2022-08-21T00:43:02.558Z,25.23
2022-08-21T00:44:02.446Z,25.24
2022-08-21T00:45:02.612Z,25.28
2022-08-21T00:46:02.803Z,25.27
2022-08-21T00:47:03.002Z,25.21
2022-08-21T00:48:03.170Z,25.21
2022-08-21T00:49:03.328Z,25.24
2022-08-21T00:50:03.487Z,25.24
2022-08-21T00:51:03.686Z,25.24
2022-08-21T00:52:03.844Z,25.24
2022-08-21T00:53:04.004Z,25.21
2022-08-21T00:54:04.165Z,25.23
2022-08-21T00:55:04.340Z,25.23
2022-08-21T00:56:04.534Z,25.21
2022-08-21T00:57:04.696Z,25.23
2022-08-21T00:58:04.885Z,25.23
2022-08-21T00:59:05.073Z,25.23
2022-08-21T01:00:05.228Z,25.21
2022-08-21T01:01:08.592Z,25.21
2022-08-21T01:02:05.601Z,25.18
2022-08-21T01:03:07.301Z,25.16
2022-08-21T01:04:05.928Z,25.20
2022-08-21T01:05:06.135Z,25.18
2022-08-21T01:06:06.291Z,25.15
2022-08-21T01:07:06.469Z,25.18
2022-08-21T01:08:06.638Z,25.16
2022-08-21T01:09:06.794Z,25.20
2022-08-21T01:10:06.954Z,25.15
2022-08-21T01:11:07.113Z,25.18
2022-08-21T01:12:07.283Z,25.15
2022-08-21T01:13:07.441Z,25.12
2022-08-21T01:14:07.593Z,25.13
2022-08-21T01:15:07.789Z,25.13
2022-08-21T01:16:07.946Z,25.11
2022-08-21T01:17:08.122Z,25.15
2022-08-21T01:18:08.274Z,25.11
2022-08-21T01:19:08.471Z,25.11
2022-08-21T01:20:08.626Z,25.09
2022-08-21T01:21:08.803Z,25.12
2022-08-21T01:22:08.967Z,25.09
2022-08-21T01:23:09.117Z,25.11
2022-08-21T01:24:09.277Z,25.05
2022-08-21T01:25:09.437Z,25.06
2022-08-21T01:26:09.604Z,25.05
2022-08-21T01:27:09.768Z,25.05
2022-08-21T01:28:09.929Z,25.08
2022-08-21T01:29:10.091Z,25.02
2022-08-21T01:30:10.240Z,25.02
2022-08-21T01:31:10.441Z,25.02
2022-08-21T01:32:10.616Z,25.03
2022-08-21T01:33:10.771Z,24.98
2022-08-21T01:34:10.939Z,24.98
2022-08-21T01:35:11.091Z,24.94
2022-08-21T01:36:11.253Z,24.97
2022-08-21T01:37:11.423Z,24.98
2022-08-21T01:38:11.583Z,24.97
2022-08-21T01:39:11.752Z,24.96
2022-08-21T01:40:11.970Z,24.98
2022-08-21T01:41:12.072Z,24.93
2022-08-21T01:42:12.260Z,24.93
2022-08-21T01:43:12.425Z,24.93
2022-08-21T01:44:12.584Z,24.91
2022-08-21T01:45:12.746Z,24.91
2022-08-21T01:46:12.908Z,24.90
2022-08-21T01:47:13.087Z,24.90
2022-08-21T01:48:13.245Z,24.91
2022-08-21T01:49:13.447Z,24.90
2022-08-21T01:50:13.567Z,24.87
2022-08-21T01:51:13.728Z,24.87
2022-08-21T01:52:13.898Z,24.84
2022-08-21T01:53:14.069Z,24.90
2022-08-21T01:54:14.227Z,24.87
2022-08-21T01:55:14.420Z,24.87
2022-08-21T01:56:14.580Z,24.90
2022-08-21T01:57:14.751Z,24.87
2022-08-21T01:58:14.911Z,24.87
2022-08-21T01:59:15.072Z,24.87
2022-08-21T02:00:15.234Z,24.86
2022-08-21T02:01:15.455Z,24.86
2022-08-21T02:02:15.577Z,24.86
2022-08-21T02:03:15.732Z,24.87
2022-08-21T02:04:16.914Z,24.84
2022-08-21T02:05:16.093Z,24.86
2022-08-21T02:06:16.261Z,24.84
2022-08-21T02:07:16.454Z,24.84
2022-08-21T02:08:16.574Z,24.84
2022-08-21T02:09:16.771Z,24.83
2022-08-21T02:10:16.925Z,24.84
2022-08-21T02:11:17.115Z,24.83
2022-08-21T02:12:17.390Z,24.81
2022-08-21T02:13:17.427Z,24.81
2022-08-21T02:14:32.228Z,24.79
2022-08-21T02:15:18.775Z,24.83
2022-08-21T02:16:19.462Z,24.79
2022-08-21T02:17:18.129Z,24.79
2022-08-21T02:18:18.289Z,24.75
2022-08-21T02:19:18.450Z,24.78
2022-08-21T02:20:18.609Z,24.76
2022-08-21T02:21:18.820Z,24.78
2022-08-21T02:22:18.982Z,24.75
2022-08-21T02:23:19.978Z,24.76
2022-08-21T02:24:20.321Z,24.75
2022-08-21T02:25:19.506Z,24.76
2022-08-21T02:26:19.684Z,24.75
2022-08-21T02:27:20.481Z,24.75
2022-08-21T02:28:21.023Z,24.73
2022-08-21T02:29:20.222Z,24.73
2022-08-21T02:30:20.397Z,24.72
2022-08-21T02:31:20.554Z,24.71
2022-08-21T02:32:20.770Z,24.73
2022-08-21T02:33:20.873Z,24.72
2022-08-21T02:34:21.090Z,24.71
2022-08-21T02:35:21.243Z,24.69
2022-08-21T02:36:21.434Z,24.68
2022-08-21T02:37:21.595Z,24.69
2022-08-21T02:38:21.747Z,24.68
2022-08-21T02:39:21.930Z,24.65
2022-08-21T02:40:23.083Z,24.66
2022-08-21T02:41:22.269Z,24.64
2022-08-21T02:42:22.431Z,24.68
2022-08-21T02:43:22.587Z,24.64
2022-08-21T02:44:30.200Z,24.64
2022-08-21T02:45:23.950Z,24.60
2022-08-21T02:46:23.139Z,24.65
2022-08-21T02:47:23.289Z,24.64
2022-08-21T02:48:23.481Z,24.64
2022-08-21T02:49:23.657Z,24.64
2022-08-21T02:50:23.820Z,24.66
2022-08-21T02:51:23.992Z,24.65
2022-08-21T02:52:24.154Z,24.60
2022-08-21T02:53:24.325Z,24.65
2022-08-21T02:54:24.513Z,24.64
2022-08-21T02:55:24.673Z,24.65
2022-08-21T02:56:24.876Z,24.65
2022-08-21T02:57:26.055Z,24.59
2022-08-21T02:58:25.234Z,24.60
2022-08-21T02:59:25.413Z,24.60
2022-08-21T03:00:25.574Z,24.64
2022-08-21T03:01:25.793Z,24.60
2022-08-21T03:02:26.528Z,24.60
2022-08-21T03:03:26.066Z,24.59
2022-08-21T03:04:26.285Z,24.56
2022-08-21T03:05:26.444Z,24.57
2022-08-21T03:06:26.607Z,24.56
2022-08-21T03:07:26.757Z,24.56
2022-08-21T03:08:27.820Z,24.54
2022-08-21T03:09:27.118Z,24.57
2022-08-21T03:10:27.279Z,24.56
2022-08-21T03:11:27.449Z,24.54
2022-08-21T03:12:29.664Z,24.56
2022-08-21T03:13:27.811Z,24.54
2022-08-21T03:14:27.968Z,24.57
2022-08-21T03:15:28.120Z,24.53
2022-08-21T03:16:31.959Z,24.54
2022-08-21T03:17:29.576Z,24.56
2022-08-21T03:18:28.654Z,24.57
2022-08-21T03:19:28.811Z,24.54
2022-08-21T03:20:28.971Z,24.56
2022-08-21T03:21:29.126Z,24.50
2022-08-21T03:22:30.718Z,24.50
2022-08-21T03:23:32.487Z,24.54
2022-08-21T03:24:29.678Z,24.53
2022-08-21T03:25:40.598Z,24.50
2022-08-21T03:26:31.034Z,24.51
2022-08-21T03:27:30.184Z,24.51
2022-08-21T03:28:30.347Z,24.50
2022-08-21T03:29:30.504Z,24.50
2022-08-21T03:30:30.696Z,24.50
2022-08-21T03:31:30.892Z,24.47
2022-08-21T03:32:31.048Z,24.46
2022-08-21T03:33:31.205Z,24.44
2022-08-21T03:34:31.387Z,24.46
2022-08-21T03:35:31.542Z,24.42
2022-08-21T03:36:31.717Z,24.46
2022-08-21T03:37:31.874Z,24.46
2022-08-21T03:38:32.031Z,24.42
2022-08-21T03:39:32.206Z,24.41
2022-08-21T03:40:32.370Z,24.39
2022-08-21T03:41:32.526Z,24.39
2022-08-21T03:42:32.721Z,24.39
2022-08-21T03:43:32.886Z,24.41
2022-08-21T03:44:33.056Z,24.38
2022-08-21T03:45:33.211Z,24.36
2022-08-21T03:46:33.380Z,24.36
2022-08-21T03:47:33.565Z,24.36
2022-08-21T03:48:33.733Z,24.35
2022-08-21T03:49:33.873Z,24.34
2022-08-21T03:50:34.697Z,24.35
2022-08-21T03:51:34.254Z,24.36
2022-08-21T03:52:34.453Z,24.35
2022-08-21T03:53:34.582Z,24.32
2022-08-21T03:54:34.746Z,24.32
2022-08-21T03:55:34.904Z,24.31
2022-08-21T03:56:35.076Z,24.31
2022-08-21T03:57:35.236Z,24.27
2022-08-21T03:58:35.396Z,24.28
2022-08-21T03:59:35.564Z,24.29
2022-08-21T04:00:35.727Z,24.32
2022-08-21T04:01:35.950Z,24.29
2022-08-21T04:02:36.048Z,24.29
2022-08-21T04:03:36.208Z,24.27
2022-08-21T04:04:36.369Z,24.28
2022-08-21T04:05:36.537Z,24.29
2022-08-21T04:06:37.988Z,24.29
2022-08-21T04:07:36.889Z,24.27
2022-08-21T04:08:37.053Z,24.27
2022-08-21T04:09:37.206Z,24.27
2022-08-21T04:10:37.417Z,24.24
2022-08-21T04:11:37.579Z,24.23
2022-08-21T04:12:37.772Z,24.24
2022-08-21T04:13:44.345Z,24.24
2022-08-21T04:14:39.132Z,24.20
2022-08-21T04:15:38.312Z,24.23
2022-08-21T04:16:38.475Z,24.23
2022-08-21T04:17:38.652Z,24.19
2022-08-21T04:18:38.839Z,24.21
2022-08-21T04:19:39.015Z,24.19
2022-08-21T04:20:39.216Z,24.21
2022-08-21T04:21:39.354Z,24.20
2022-08-21T04:22:39.526Z,24.19
2022-08-21T04:23:39.695Z,24.19
2022-08-21T04:24:39.897Z,24.19
2022-08-21T04:25:40.065Z,24.13
2022-08-21T04:26:40.209Z,24.16
2022-08-21T04:27:40.387Z,24.13
2022-08-21T04:28:40.569Z,24.13
2022-08-21T04:29:40.757Z,24.11
2022-08-21T04:30:40.906Z,24.12
2022-08-21T04:31:41.078Z,24.11
2022-08-21T04:32:41.260Z,24.09
2022-08-21T04:33:41.439Z,24.08
2022-08-21T04:34:41.636Z,24.13
2022-08-21T04:35:41.783Z,24.09
2022-08-21T04:36:41.956Z,24.08
2022-08-21T04:37:42.428Z,24.08
2022-08-21T04:38:44.550Z,24.08
2022-08-21T04:39:42.537Z,24.06
2022-08-21T04:40:42.683Z,24.04
2022-08-21T04:41:42.827Z,24.04
2022-08-21T04:42:43.003Z,24.04
2022-08-21T04:43:43.192Z,24.03
2022-08-21T04:44:43.354Z,24.01
2022-08-21T04:45:43.495Z,24.03
2022-08-21T04:46:43.676Z,24.01
2022-08-21T04:47:52.822Z,24.04
2022-08-21T04:48:45.031Z,24.03
2022-08-21T04:49:44.196Z,23.98
2022-08-21T04:50:44.375Z,24.03
2022-08-21T04:51:44.557Z,24.03
2022-08-21T04:52:44.747Z,24.00
2022-08-21T04:53:44.925Z,24.00
2022-08-21T04:54:45.076Z,23.98
2022-08-21T04:55:45.251Z,24.01
2022-08-21T04:56:45.429Z,24.04
2022-08-21T04:57:48.589Z,24.01
2022-08-21T04:58:45.794Z,24.01
2022-08-21T04:59:45.937Z,24.01
2022-08-21T05:00:46.120Z,24.04
2022-08-21T05:01:46.359Z,24.03
2022-08-21T05:02:46.458Z,24.03
2022-08-21T05:03:46.650Z,24.04
2022-08-21T05:04:46.796Z,24.03
2022-08-21T05:05:46.978Z,24.03
2022-08-21T05:06:47.154Z,24.06
2022-08-21T05:07:47.332Z,24.08
2022-08-21T05:08:47.531Z,24.03
2022-08-21T05:09:47.682Z,24.04
2022-08-21T05:10:47.862Z,24.08
2022-08-21T05:11:48.048Z,24.04
2022-08-21T05:12:48.228Z,24.09
2022-08-21T05:13:48.425Z,24.08
2022-08-21T05:14:49.585Z,24.09
2022-08-21T05:15:48.747Z,24.11
2022-08-21T05:16:48.934Z,24.11
2022-08-21T05:17:55.497Z,24.09
2022-08-21T05:18:50.290Z,24.09
2022-08-21T05:19:49.443Z,24.09
2022-08-21T05:20:49.596Z,24.09
2022-08-21T05:21:49.748Z,24.11
2022-08-21T05:22:49.937Z,24.12
2022-08-21T05:23:50.138Z,24.12
2022-08-21T05:24:50.300Z,24.13
2022-08-21T05:25:50.478Z,24.12
2022-08-21T05:26:50.672Z,24.13
2022-08-21T05:27:52.361Z,24.13
2022-08-21T05:28:51.051Z,24.16
2022-08-21T05:29:51.222Z,24.16
2022-08-21T05:30:51.380Z,24.17
2022-08-21T05:31:51.572Z,24.16
2022-08-21T05:32:51.812Z,24.13
2022-08-21T05:33:52.020Z,24.17
2022-08-21T05:34:52.092Z,24.13
2022-08-21T05:35:52.257Z,24.19
2022-08-21T05:36:52.433Z,24.17
2022-08-21T05:37:52.627Z,24.17
2022-08-21T05:38:52.842Z,24.17
2022-08-21T05:40:11.800Z,24.17
2022-08-21T05:40:54.241Z,24.16
2022-08-21T05:41:53.365Z,24.19
2022-08-21T05:42:54.548Z,24.21
2022-08-21T05:43:53.748Z,24.19
2022-08-21T05:44:53.910Z,24.20
2022-08-21T05:45:54.120Z,24.21
2022-08-21T05:46:54.287Z,24.21
2022-08-21T05:47:54.437Z,24.19
2022-08-21T05:48:54.616Z,24.21
2022-08-21T05:49:54.778Z,24.20
2022-08-21T05:50:54.967Z,24.20
2022-08-21T05:51:55.149Z,24.21
2022-08-21T05:52:56.676Z,24.23
2022-08-21T05:53:56.509Z,24.21
2022-08-21T05:54:55.670Z,24.23
2022-08-21T05:55:55.818Z,24.21
2022-08-21T05:56:56.001Z,24.28
2022-08-21T05:57:56.200Z,24.28
2022-08-21T05:58:56.349Z,24.31
2022-08-21T05:59:56.541Z,24.31
2022-08-21T06:00:56.716Z,24.32
2022-08-21T06:01:56.949Z,24.34
2022-08-21T06:02:57.257Z,24.34
2022-08-21T06:03:57.280Z,24.32
2022-08-21T06:04:57.472Z,24.32
2022-08-21T06:05:57.610Z,24.36
2022-08-21T06:06:57.793Z,24.36
2022-08-21T06:07:57.985Z,24.38
2022-08-21T06:08:58.180Z,24.36
2022-08-21T06:09:58.367Z,24.36
2022-08-21T06:10:58.545Z,24.36
2022-08-21T06:11:58.714Z,24.38
2022-08-21T06:12:59.067Z,24.44
2022-08-21T06:13:59.036Z,24.44
2022-08-21T06:14:59.183Z,24.44
2022-08-21T06:15:59.344Z,24.47
2022-08-21T06:16:59.518Z,24.47
2022-08-21T06:17:59.707Z,24.49
2022-08-21T06:19:02.911Z,24.53
2022-08-21T06:20:00.090Z,24.54
2022-08-21T06:21:00.222Z,24.56
2022-08-21T06:22:00.398Z,24.56
2022-08-21T06:23:00.788Z,24.60
2022-08-21T06:24:00.750Z,24.61
2022-08-21T06:25:00.963Z,24.66
2022-08-21T06:26:01.121Z,24.64
2022-08-21T06:27:01.302Z,24.65
2022-08-21T06:28:01.490Z,24.66
2022-08-21T06:29:01.672Z,24.66
2022-08-21T06:30:01.889Z,24.71
2022-08-21T06:31:02.036Z,24.71
2022-08-21T06:32:02.212Z,24.72
2022-08-21T06:33:02.363Z,24.76
2022-08-21T06:34:02.559Z,24.75
2022-08-21T06:35:02.774Z,24.75
2022-08-21T06:36:02.915Z,24.76
2022-08-21T06:37:03.105Z,24.79
2022-08-21T06:38:03.275Z,24.81
2022-08-21T06:39:03.454Z,24.83
2022-08-21T06:40:04.692Z,24.83
2022-08-21T06:41:04.098Z,24.83
2022-08-21T06:42:03.966Z,24.87
2022-08-21T06:43:04.158Z,24.88
2022-08-21T06:44:04.315Z,24.91
2022-08-21T06:45:04.517Z,24.93
2022-08-21T06:46:04.691Z,24.93
2022-08-21T06:47:04.878Z,24.94
2022-08-21T06:48:05.059Z,24.97
2022-08-21T06:49:05.262Z,25.02
2022-08-21T06:50:05.454Z,25.01
2022-08-21T06:51:05.593Z,25.03
2022-08-21T06:52:05.760Z,25.06
2022-08-21T06:53:05.949Z,25.06
2022-08-21T06:54:06.141Z,25.11
2022-08-21T06:55:06.347Z,25.11
2022-08-21T06:56:06.482Z,25.12
2022-08-21T06:57:06.672Z,25.18
2022-08-21T06:58:06.852Z,25.16
2022-08-21T06:59:07.042Z,25.20
2022-08-21T07:00:07.235Z,25.21
2022-08-21T07:01:07.439Z,25.21
2022-08-21T07:02:07.579Z,25.28
2022-08-21T07:03:07.764Z,25.30
2022-08-21T07:04:07.953Z,25.30
2022-08-21T07:05:17.969Z,25.31
2022-08-21T07:06:09.316Z,25.35
2022-08-21T07:07:08.476Z,25.38
2022-08-21T07:08:08.659Z,25.40
2022-08-21T07:09:08.826Z,25.40
2022-08-21T07:10:09.006Z,25.42
2022-08-21T07:11:10.157Z,25.42
2022-08-21T07:12:09.345Z,25.45
2022-08-21T07:13:09.529Z,25.46
2022-08-21T07:14:09.750Z,25.49
2022-08-21T07:15:11.628Z,25.49
2022-08-21T07:16:10.088Z,25.53
2022-08-21T07:17:10.270Z,25.53
2022-08-21T07:18:10.482Z,25.52
2022-08-21T07:19:10.655Z,25.58
2022-08-21T07:20:10.792Z,25.55
2022-08-21T07:21:10.982Z,25.58
2022-08-21T07:22:11.171Z,25.61
2022-08-21T07:23:11.354Z,25.65
2022-08-21T07:24:11.560Z,25.65
2022-08-21T07:25:11.713Z,25.66
2022-08-21T07:26:11.902Z,25.66
2022-08-21T07:27:12.052Z,25.69
2022-08-21T07:28:12.234Z,25.74
2022-08-21T07:29:12.421Z,25.71
2022-08-21T07:30:12.624Z,25.74
2022-08-21T07:31:12.770Z,25.78
2022-08-21T07:32:13.371Z,25.77
2022-08-21T07:33:13.146Z,25.81
2022-08-21T07:34:13.317Z,25.84
2022-08-21T07:35:13.465Z,25.81
2022-08-21T07:36:13.647Z,25.86
2022-08-21T07:37:13.836Z,25.87
2022-08-21T07:38:14.021Z,25.86
2022-08-21T07:39:14.167Z,25.88
2022-08-21T07:40:14.445Z,25.96
2022-08-21T07:41:14.537Z,25.96
2022-08-21T07:42:14.733Z,25.99
2022-08-21T07:43:14.909Z,25.96
2022-08-21T07:44:15.092Z,26.01
2022-08-21T07:45:15.278Z,26.01
2022-08-21T07:46:15.468Z,26.05
2022-08-21T07:47:15.641Z,26.06
2022-08-21T07:48:16.814Z,26.06
2022-08-21T07:49:16.001Z,26.09
2022-08-21T07:50:16.195Z,26.15
2022-08-21T07:51:16.364Z,26.14
2022-08-21T07:52:16.539Z,26.15
2022-08-21T07:53:16.723Z,26.20
2022-08-21T07:54:17.268Z,26.21
2022-08-21T07:55:17.055Z,26.20
2022-08-21T07:56:17.263Z,26.21
2022-08-21T07:57:18.790Z,26.24
2022-08-21T07:58:17.596Z,26.24
2022-08-21T07:59:17.745Z,26.30
2022-08-21T08:00:17.949Z,26.32
2022-08-21T08:01:18.168Z,26.32
2022-08-21T08:02:18.287Z,26.32
2022-08-21T08:03:28.816Z,26.35
2022-08-21T08:04:23.256Z,26.38
2022-08-21T08:05:19.803Z,26.38
2022-08-21T08:06:18.952Z,26.45
2022-08-21T08:07:19.140Z,26.43
2022-08-21T08:08:19.331Z,26.46
2022-08-21T08:09:19.518Z,26.50
2022-08-21T08:10:19.710Z,26.54
2022-08-21T08:11:19.851Z,26.55
2022-08-21T08:12:20.028Z,26.54
2022-08-21T08:13:20.211Z,26.57
2022-08-21T08:14:20.405Z,26.58
2022-08-21T08:15:21.600Z,26.60
2022-08-21T08:16:20.751Z,26.61
2022-08-21T08:17:20.940Z,26.64
2022-08-21T08:18:21.127Z,26.64
2022-08-21T08:19:21.312Z,26.64
2022-08-21T08:20:21.534Z,26.69
2022-08-21T08:21:21.681Z,26.69
2022-08-21T08:22:21.863Z,26.70
2022-08-21T08:23:22.034Z,26.72
2022-08-21T08:24:22.230Z,26.74
2022-08-21T08:25:22.431Z,26.74
2022-08-21T08:26:22.601Z,26.79
2022-08-21T08:27:22.790Z,26.82
2022-08-21T08:28:23.008Z,26.82
2022-08-21T08:29:23.156Z,26.82
2022-08-21T08:30:23.360Z,26.85
2022-08-21T08:31:23.527Z,26.89
2022-08-21T08:32:23.734Z,26.89
2022-08-21T08:33:23.902Z,26.91
2022-08-21T08:34:25.679Z,26.91
2022-08-21T08:35:24.831Z,26.94
2022-08-21T08:36:24.448Z,26.98
2022-08-21T08:37:25.416Z,27.00
2022-08-21T08:38:24.800Z,26.97
2022-08-21T08:39:27.100Z,27.05
2022-08-21T08:40:25.218Z,27.03
2022-08-21T08:41:27.318Z,27.08
2022-08-21T08:42:33.216Z,27.08
2022-08-21T08:43:26.669Z,27.14
2022-08-21T08:44:25.834Z,27.17
2022-08-21T08:45:26.012Z,27.17
2022-08-21T08:46:26.161Z,27.20
2022-08-21T08:47:26.313Z,27.20
2022-08-21T08:48:26.532Z,27.23
2022-08-21T08:49:26.682Z,27.26
2022-08-21T08:50:26.829Z,27.29
2022-08-21T08:51:27.016Z,27.32
2022-08-21T08:52:27.236Z,27.33
2022-08-21T08:53:27.375Z,27.36
2022-08-21T08:54:27.576Z,27.36
2022-08-21T08:55:27.717Z,27.41
2022-08-21T08:56:27.906Z,27.39
2022-08-21T08:57:28.084Z,27.42
2022-08-21T08:58:28.273Z,27.42
2022-08-21T08:59:28.411Z,27.45
2022-08-21T09:00:28.597Z,27.47
2022-08-21T09:01:28.809Z,27.45
2022-08-21T09:02:28.951Z,27.47
2022-08-21T09:03:29.085Z,27.51
2022-08-21T09:04:29.260Z,27.49
2022-08-21T09:05:29.421Z,27.48
2022-08-21T09:06:29.601Z,27.48
2022-08-21T09:07:29.751Z,27.49
2022-08-21T09:08:29.946Z,27.51
2022-08-21T09:09:30.098Z,27.52
2022-08-21T09:10:30.282Z,27.54
2022-08-21T09:11:30.491Z,27.54
2022-08-21T09:12:30.632Z,27.54
2022-08-21T09:13:32.613Z,27.58
2022-08-21T09:14:30.993Z,27.60
2022-08-21T09:15:31.174Z,27.60
2022-08-21T09:16:31.390Z,27.63
2022-08-21T09:17:31.532Z,27.63
2022-08-21T09:18:31.716Z,27.63
2022-08-21T09:19:31.874Z,27.63
2022-08-21T09:20:32.065Z,27.63
2022-08-21T09:21:32.267Z,27.64
2022-08-21T09:22:32.413Z,27.67
2022-08-21T09:23:32.597Z,27.67
2022-08-21T09:24:32.786Z,27.66
2022-08-21T09:25:32.973Z,27.69
2022-08-21T09:26:33.178Z,27.69
2022-08-21T09:27:33.317Z,27.70
2022-08-21T09:28:33.507Z,27.69
2022-08-21T09:29:33.690Z,27.70
2022-08-21T09:30:33.895Z,27.73
2022-08-21T09:31:34.068Z,27.74
2022-08-21T09:32:37.107Z,27.76
2022-08-21T09:33:34.451Z,27.78
2022-08-21T09:34:34.601Z,27.78
2022-08-21T09:35:34.802Z,27.82
2022-08-21T09:36:34.953Z,27.82
2022-08-21T09:37:35.130Z,27.84
2022-08-21T09:38:35.313Z,27.89
2022-08-21T09:39:40.749Z,27.88
2022-08-21T09:40:36.862Z,27.89
2022-08-21T09:41:35.827Z,27.94
2022-08-21T09:42:36.015Z,27.92
2022-08-21T09:43:36.199Z,27.95
2022-08-21T09:44:36.385Z,28.01
2022-08-21T09:45:36.592Z,28.01
2022-08-21T09:46:36.766Z,28.04
2022-08-21T09:47:36.938Z,28.04
2022-08-21T09:48:37.111Z,28.07
2022-08-21T09:49:37.286Z,28.07
2022-08-21T09:50:37.488Z,28.13
2022-08-21T09:51:37.628Z,28.10
2022-08-21T09:52:37.819Z,28.18
2022-08-21T09:53:37.987Z,28.21
2022-08-21T09:54:38.159Z,28.19
2022-08-21T09:55:38.349Z,28.19
2022-08-21T09:56:38.509Z,28.26
2022-08-21T09:57:38.699Z,28.26
2022-08-21T09:58:39.881Z,28.28
2022-08-21T09:59:39.038Z,28.30
2022-08-21T10:00:39.278Z,28.36
2022-08-21T10:01:39.402Z,28.37
2022-08-21T10:02:39.592Z,28.40
2022-08-21T10:03:39.773Z,28.42
2022-08-21T10:04:39.977Z,28.44
2022-08-21T10:05:40.121Z,28.46
2022-08-21T10:06:40.304Z,28.49
2022-08-21T10:07:40.472Z,28.51
2022-08-21T10:08:40.661Z,28.54
2022-08-21T10:09:40.854Z,28.57
2022-08-21T10:10:41.035Z,28.57
2022-08-21T10:11:41.216Z,28.63
2022-08-21T10:12:41.407Z,28.63
2022-08-21T10:13:41.595Z,28.64
2022-08-21T10:14:41.787Z,28.66
2022-08-21T10:15:41.945Z,28.68
2022-08-21T10:16:42.128Z,28.64
2022-08-21T10:17:42.319Z,28.64
2022-08-21T10:18:42.510Z,28.66
2022-08-21T10:19:42.669Z,28.66
2022-08-21T10:20:42.828Z,28.67
2022-08-21T10:21:42.979Z,28.66
2022-08-21T10:22:43.164Z,28.68
2022-08-21T10:23:43.340Z,28.67
2022-08-21T10:24:43.526Z,28.67
2022-08-21T10:25:57.044Z,28.72
2022-08-21T10:26:44.898Z,28.72
2022-08-21T10:27:44.082Z,28.75
2022-08-21T10:28:44.274Z,28.73
2022-08-21T10:29:44.412Z,28.75
2022-08-21T10:30:44.599Z,28.78
2022-08-21T10:31:44.752Z,28.76
2022-08-21T10:32:44.948Z,28.79
2022-08-21T10:33:45.134Z,28.82
2022-08-21T10:34:45.329Z,28.83
2022-08-21T10:35:45.509Z,28.86
2022-08-21T10:36:45.704Z,28.86
2022-08-21T10:37:45.896Z,28.88
2022-08-21T10:38:58.613Z,28.93
2022-08-21T10:39:47.235Z,28.93
2022-08-21T10:40:46.362Z,28.97
2022-08-21T10:41:46.540Z,28.97
2022-08-21T10:42:46.717Z,29.00
2022-08-21T10:43:46.918Z,29.01
2022-08-21T10:44:47.098Z,29.03
2022-08-21T10:45:47.256Z,29.04
2022-08-21T10:46:47.430Z,29.07
2022-08-21T10:47:47.608Z,29.07
2022-08-21T10:48:47.780Z,29.07
2022-08-21T10:49:47.960Z,29.09
2022-08-21T10:50:48.151Z,29.12
2022-08-21T10:51:48.339Z,29.07
2022-08-21T10:52:48.562Z,29.10
2022-08-21T10:53:48.691Z,29.15
2022-08-21T10:54:48.883Z,29.15
2022-08-21T10:55:49.062Z,29.16
2022-08-21T10:56:49.261Z,29.20
2022-08-21T10:57:49.459Z,29.20
2022-08-21T10:58:49.600Z,29.22
2022-08-21T10:59:49.784Z,29.25
2022-08-21T11:00:50.007Z,29.28
2022-08-21T11:01:50.095Z,29.28
2022-08-21T11:02:50.439Z,29.30
2022-08-21T11:03:50.449Z,29.31
2022-08-21T11:04:50.603Z,29.32
2022-08-21T11:05:50.984Z,29.32
2022-08-21T11:06:50.976Z,29.34
2022-08-21T11:07:51.282Z,29.34
2022-08-21T11:08:51.331Z,29.31
2022-08-21T11:09:51.510Z,29.35
2022-08-21T11:10:59.231Z,29.35
2022-08-21T11:11:59.299Z,29.37
2022-08-21T11:12:53.108Z,29.37
2022-08-21T11:13:52.225Z,29.40
2022-08-21T11:14:52.409Z,29.40
2022-08-21T11:15:52.610Z,29.45
2022-08-21T11:16:52.770Z,29.45
2022-08-21T11:17:52.921Z,29.47
2022-08-21T11:18:53.108Z,29.50
2022-08-21T11:19:53.286Z,29.53
2022-08-21T11:20:53.484Z,29.53
2022-08-21T11:21:53.673Z,29.57
2022-08-21T11:22:55.541Z,29.57
2022-08-21T11:23:54.044Z,29.59
2022-08-21T11:24:54.229Z,29.64
2022-08-21T11:25:54.434Z,29.65
2022-08-21T11:26:54.593Z,29.68
2022-08-21T11:27:54.787Z,29.75
2022-08-21T11:28:54.921Z,29.76
2022-08-21T11:29:55.090Z,29.82
2022-08-21T11:30:55.307Z,29.88
2022-08-21T11:31:55.456Z,29.95
2022-08-21T11:32:55.628Z,29.99
2022-08-21T11:33:55.823Z,30.06
2022-08-21T11:34:55.982Z,30.12
2022-08-21T11:35:56.166Z,30.22
2022-08-21T11:36:56.319Z,30.31
2022-08-21T11:37:56.522Z,30.51
2022-08-21T11:38:56.683Z,30.71
2022-08-21T11:39:56.928Z,30.96
2022-08-21T11:40:57.051Z,31.37
2022-08-21T11:41:57.241Z,31.82
2022-08-21T11:42:57.451Z,32.28
2022-08-21T11:43:57.583Z,32.37
2022-08-21T11:44:57.770Z,32.21
2022-08-21T11:45:57.974Z,32.08
2022-08-21T11:46:58.112Z,32.01
2022-08-21T11:47:58.318Z,31.92
2022-08-21T11:48:58.467Z,31.86
2022-08-21T11:49:58.644Z,31.78
2022-08-21T11:50:58.836Z,31.78
2022-08-21T11:51:58.995Z,31.72
2022-08-21T11:52:59.262Z,31.70
2022-08-21T11:53:59.366Z,31.66
2022-08-21T11:54:59.516Z,31.63
2022-08-21T11:55:59.696Z,31.63
2022-08-21T11:56:59.883Z,31.63
2022-08-21T11:58:00.098Z,31.62
2022-08-21T11:59:00.250Z,31.62
2022-08-21T12:00:00.427Z,31.60
2022-08-21T12:01:00.652Z,31.59
2022-08-21T12:02:00.834Z,31.57
2022-08-21T12:03:00.989Z,31.53
2022-08-21T12:04:01.133Z,31.50
2022-08-21T12:05:08.308Z,31.49
2022-08-21T12:06:02.480Z,31.45
2022-08-21T12:07:01.670Z,31.45
2022-08-21T12:08:01.871Z,31.43
2022-08-21T12:09:02.011Z,31.38
2022-08-21T12:10:02.201Z,31.33
2022-08-21T12:11:02.364Z,31.28
2022-08-21T12:12:02.564Z,31.26
2022-08-21T12:13:02.710Z,31.20
2022-08-21T12:14:02.913Z,31.20
2022-08-21T12:15:03.065Z,31.18
2022-08-21T12:16:03.234Z,31.17
2022-08-21T12:17:03.396Z,31.12
2022-08-21T12:18:03.539Z,31.12
2022-08-21T12:19:03.741Z,31.07
2022-08-21T12:20:03.887Z,31.03
2022-08-21T12:21:04.070Z,31.03
2022-08-21T12:22:04.277Z,31.03
2022-08-21T12:23:04.433Z,30.96
2022-08-21T12:24:04.628Z,30.95
2022-08-21T12:25:04.771Z,30.95
2022-08-21T12:26:04.968Z,30.96
2022-08-21T12:27:05.134Z,30.98
2022-08-21T12:28:05.283Z,30.98
2022-08-21T12:29:05.465Z,30.99
2022-08-21T12:30:05.661Z,30.98
2022-08-21T12:31:05.810Z,30.96
2022-08-21T12:32:06.015Z,31.02
2022-08-21T12:33:06.202Z,31.00
2022-08-21T12:34:06.388Z,31.00
2022-08-21T12:35:06.565Z,31.06
2022-08-21T12:36:06.766Z,31.07
2022-08-21T12:37:06.913Z,31.11
2022-08-21T12:38:07.079Z,31.12
2022-08-21T12:39:07.264Z,31.14
2022-08-21T12:40:07.506Z,31.18
2022-08-21T12:41:07.615Z,31.17
2022-08-21T12:42:07.805Z,31.20
2022-08-21T12:43:08.065Z,31.26
2022-08-21T12:44:08.124Z,31.26
2022-08-21T12:45:08.266Z,31.33
2022-08-21T12:46:08.478Z,31.31
2022-08-21T12:47:08.612Z,31.35
2022-08-21T12:48:08.807Z,31.38
2022-08-21T12:49:08.960Z,31.35
2022-08-21T12:50:09.156Z,31.37
2022-08-21T12:51:09.341Z,31.35
2022-08-21T12:52:09.493Z,31.34
2022-08-21T12:53:20.211Z,31.31
2022-08-21T12:54:10.840Z,31.22
2022-08-21T12:55:10.039Z,31.20